sensor_id;sensor_type;location;lat;lon;timestamp;P1;durP1;ratioP1;P2;durP2;ratioP2
6727;SDS011;3401;52.504;13.430;2022-07-29T00:00:21;930.87;;;848.07;;
6727;SDS011;3401;52.504;13.430;2022-07-29T00:02:49;942.43;;;860.30;;
6727;SDS011;3401;52.504;13.430;2022-07-29T00:05:21;941.17;;;858.80;;
6727;SDS011;3401;52.504;13.430;2022-07-29T00:07:49;927.67;;;847.00;;
6727;SDS011;3401;52.504;13.430;2022-07-29T00:10:17;923.13;;;841.87;;
6727;SDS011;3401;52.504;13.430;2022-07-29T00:12:45;930.10;;;849.80;;
6727;SDS011;3401;52.504;13.430;2022-07-29T00:15:13;943.67;;;862.10;;
6727;SDS011;3401;52.504;13.430;2022-07-29T00:17:41;927.40;;;849.67;;
6727;SDS011;3401;52.504;13.430;2022-07-29T00:20:09;933.17;;;856.63;;
6727;SDS011;3401;52.504;13.430;2022-07-29T00:22:39;925.03;;;853.03;;
6727;SDS011;3401;52.504;13.430;2022-07-29T00:25:07;928.27;;;853.00;;
6727;SDS011;3401;52.504;13.430;2022-07-29T00:27:35;909.00;;;836.53;;
6727;SDS011;3401;52.504;13.430;2022-07-29T00:30:04;907.57;;;833.60;;
6727;SDS011;3401;52.504;13.430;2022-07-29T00:32:33;902.37;;;828.27;;
6727;SDS011;3401;52.504;13.430;2022-07-29T00:35:02;894.83;;;824.90;;
6727;SDS011;3401;52.504;13.430;2022-07-29T00:37:49;915.07;;;846.77;;
6727;SDS011;3401;52.504;13.430;2022-07-29T00:40:19;889.00;;;822.73;;
6727;SDS011;3401;52.504;13.430;2022-07-29T00:42:49;903.73;;;836.03;;
6727;SDS011;3401;52.504;13.430;2022-07-29T00:45:18;890.10;;;822.07;;
6727;SDS011;3401;52.504;13.430;2022-07-29T00:47:48;904.77;;;834.60;;
6727;SDS011;3401;52.504;13.430;2022-07-29T00:50:16;904.77;;;834.07;;
6727;SDS011;3401;52.504;13.430;2022-07-29T00:52:44;896.93;;;828.50;;
6727;SDS011;3401;52.504;13.430;2022-07-29T00:55:14;901.47;;;830.87;;
6727;SDS011;3401;52.504;13.430;2022-07-29T00:57:43;882.73;;;812.87;;
6727;SDS011;3401;52.504;13.430;2022-07-29T01:00:13;898.80;;;830.33;;
6727;SDS011;3401;52.504;13.430;2022-07-29T01:02:43;903.50;;;832.83;;
6727;SDS011;3401;52.504;13.430;2022-07-29T01:05:11;882.07;;;812.27;;
6727;SDS011;3401;52.504;13.430;2022-07-29T01:07:40;903.23;;;832.33;;
6727;SDS011;3401;52.504;13.430;2022-07-29T01:10:09;889.90;;;818.37;;
6727;SDS011;3401;52.504;13.430;2022-07-29T01:12:39;886.60;;;816.20;;
6727;SDS011;3401;52.504;13.430;2022-07-29T01:15:07;882.40;;;814.03;;
6727;SDS011;3401;52.504;13.430;2022-07-29T01:17:36;899.17;;;829.07;;
6727;SDS011;3401;52.504;13.430;2022-07-29T01:20:20;863.87;;;796.70;;
6727;SDS011;3401;52.504;13.430;2022-07-29T01:23:08;886.27;;;817.90;;
6727;SDS011;3401;52.504;13.430;2022-07-29T01:25:47;877.97;;;810.40;;
6727;SDS011;3401;52.504;13.430;2022-07-29T01:28:47;868.60;;;799.90;;
6727;SDS011;3401;52.504;13.430;2022-07-29T01:31:22;870.13;;;802.87;;
6727;SDS011;3401;52.504;13.430;2022-07-29T01:33:57;866.47;;;800.70;;
6727;SDS011;3401;52.504;13.430;2022-07-29T01:36:29;878.20;;;811.10;;
6727;SDS011;3401;52.504;13.430;2022-07-29T01:39:01;851.93;;;788.00;;
6727;SDS011;3401;52.504;13.430;2022-07-29T01:41:32;870.23;;;804.23;;
6727;SDS011;3401;52.504;13.430;2022-07-29T01:44:05;845.00;;;780.10;;
6727;SDS011;3401;52.504;13.430;2022-07-29T01:46:39;857.20;;;791.30;;
6727;SDS011;3401;52.504;13.430;2022-07-29T01:49:11;852.07;;;787.53;;
6727;SDS011;3401;52.504;13.430;2022-07-29T01:51:43;856.57;;;790.77;;
6727;SDS011;3401;52.504;13.430;2022-07-29T01:54:22;800.63;;;740.93;;
6727;SDS011;3401;52.504;13.430;2022-07-29T01:56:55;819.73;;;759.13;;
6727;SDS011;3401;52.504;13.430;2022-07-29T01:59:25;828.33;;;766.90;;
6727;SDS011;3401;52.504;13.430;2022-07-29T02:01:54;845.67;;;781.37;;
6727;SDS011;3401;52.504;13.430;2022-07-29T02:04:22;838.00;;;771.90;;
6727;SDS011;3401;52.504;13.430;2022-07-29T02:06:56;823.30;;;758.53;;
6727;SDS011;3401;52.504;13.430;2022-07-29T02:09:26;843.37;;;778.53;;
6727;SDS011;3401;52.504;13.430;2022-07-29T02:11:54;843.80;;;779.20;;
6727;SDS011;3401;52.504;13.430;2022-07-29T02:14:24;846.57;;;781.63;;
6727;SDS011;3401;52.504;13.430;2022-07-29T02:16:56;837.40;;;773.30;;
6727;SDS011;3401;52.504;13.430;2022-07-29T02:19:26;850.17;;;785.97;;
6727;SDS011;3401;52.504;13.430;2022-07-29T02:21:54;855.57;;;789.57;;
6727;SDS011;3401;52.504;13.430;2022-07-29T02:24:24;848.27;;;782.40;;
6727;SDS011;3401;52.504;13.430;2022-07-29T02:26:53;839.80;;;775.20;;
6727;SDS011;3401;52.504;13.430;2022-07-29T02:29:22;861.80;;;796.03;;
6727;SDS011;3401;52.504;13.430;2022-07-29T02:31:52;855.27;;;790.40;;
6727;SDS011;3401;52.504;13.430;2022-07-29T02:34:21;876.50;;;810.93;;
6727;SDS011;3401;52.504;13.430;2022-07-29T02:36:49;872.07;;;806.67;;
6727;SDS011;3401;52.504;13.430;2022-07-29T02:39:17;851.43;;;787.73;;
6727;SDS011;3401;52.504;13.430;2022-07-29T02:41:46;864.27;;;799.53;;
6727;SDS011;3401;52.504;13.430;2022-07-29T02:44:16;864.63;;;798.93;;
6727;SDS011;3401;52.504;13.430;2022-07-29T02:46:49;850.27;;;786.53;;
6727;SDS011;3401;52.504;13.430;2022-07-29T02:49:23;857.63;;;793.47;;
6727;SDS011;3401;52.504;13.430;2022-07-29T02:51:58;851.63;;;786.13;;
6727;SDS011;3401;52.504;13.430;2022-07-29T02:54:30;855.33;;;791.20;;
6727;SDS011;3401;52.504;13.430;2022-07-29T02:57:00;850.47;;;785.50;;
6727;SDS011;3401;52.504;13.430;2022-07-29T02:59:31;786.27;;;727.80;;
6727;SDS011;3401;52.504;13.430;2022-07-29T03:02:01;747.53;;;691.63;;
6727;SDS011;3401;52.504;13.430;2022-07-29T03:04:30;756.87;;;700.77;;
6727;SDS011;3401;52.504;13.430;2022-07-29T03:06:59;735.90;;;680.50;;
6727;SDS011;3401;52.504;13.430;2022-07-29T03:09:28;725.50;;;671.03;;
6727;SDS011;3401;52.504;13.430;2022-07-29T03:11:57;699.70;;;646.33;;
6727;SDS011;3401;52.504;13.430;2022-07-29T03:14:26;727.13;;;672.77;;
6727;SDS011;3401;52.504;13.430;2022-07-29T03:16:55;674.07;;;622.30;;
6727;SDS011;3401;52.504;13.430;2022-07-29T03:19:24;694.80;;;641.90;;
6727;SDS011;3401;52.504;13.430;2022-07-29T03:21:52;681.00;;;628.97;;
6727;SDS011;3401;52.504;13.430;2022-07-29T03:24:27;636.00;;;586.30;;
6727;SDS011;3401;52.504;13.430;2022-07-29T03:26:56;594.00;;;547.20;;
6727;SDS011;3401;52.504;13.430;2022-07-29T03:29:24;567.33;;;522.23;;
6727;SDS011;3401;52.504;13.430;2022-07-29T03:32:00;559.20;;;515.40;;
6727;SDS011;3401;52.504;13.430;2022-07-29T03:34:31;499.63;;;460.97;;
6727;SDS011;3401;52.504;13.430;2022-07-29T03:36:58;472.77;;;437.30;;
6727;SDS011;3401;52.504;13.430;2022-07-29T03:39:27;522.90;;;482.57;;
6727;SDS011;3401;52.504;13.430;2022-07-29T03:41:58;482.23;;;445.73;;
6727;SDS011;3401;52.504;13.430;2022-07-29T03:44:27;513.43;;;474.07;;
6727;SDS011;3401;52.504;13.430;2022-07-29T03:46:56;444.17;;;410.17;;
6727;SDS011;3401;52.504;13.430;2022-07-29T03:49:26;478.73;;;442.03;;
6727;SDS011;3401;52.504;13.430;2022-07-29T03:51:55;441.80;;;408.73;;
6727;SDS011;3401;52.504;13.430;2022-07-29T03:54:23;442.10;;;408.93;;
6727;SDS011;3401;52.504;13.430;2022-07-29T03:56:51;445.03;;;412.20;;
6727;SDS011;3401;52.504;13.430;2022-07-29T03:59:20;478.50;;;442.43;;
6727;SDS011;3401;52.504;13.430;2022-07-29T04:01:48;412.73;;;382.20;;
6727;SDS011;3401;52.504;13.430;2022-07-29T04:04:17;429.10;;;397.10;;
6727;SDS011;3401;52.504;13.430;2022-07-29T04:06:45;425.33;;;394.07;;
6727;SDS011;3401;52.504;13.430;2022-07-29T04:09:15;427.67;;;395.87;;
6727;SDS011;3401;52.504;13.430;2022-07-29T04:11:43;455.07;;;420.77;;
6727;SDS011;3401;52.504;13.430;2022-07-29T04:14:29;449.60;;;415.43;;
6727;SDS011;3401;52.504;13.430;2022-07-29T04:16:57;455.07;;;420.87;;
6727;SDS011;3401;52.504;13.430;2022-07-29T04:19:25;472.30;;;436.70;;
6727;SDS011;3401;52.504;13.430;2022-07-29T04:21:53;435.13;;;402.23;;
6727;SDS011;3401;52.504;13.430;2022-07-29T04:24:22;420.00;;;388.57;;
6727;SDS011;3401;52.504;13.430;2022-07-29T04:26:50;450.43;;;416.53;;
6727;SDS011;3401;52.504;13.430;2022-07-29T04:29:18;454.23;;;419.97;;
6727;SDS011;3401;52.504;13.430;2022-07-29T04:31:46;377.03;;;349.63;;
6727;SDS011;3401;52.504;13.430;2022-07-29T04:34:14;322.57;;;301.53;;
6727;SDS011;3401;52.504;13.430;2022-07-29T04:36:42;298.33;;;279.33;;
6727;SDS011;3401;52.504;13.430;2022-07-29T04:39:10;310.30;;;289.80;;
6727;SDS011;3401;52.504;13.430;2022-07-29T04:41:46;414.57;;;384.37;;
6727;SDS011;3401;52.504;13.430;2022-07-29T04:44:13;392.63;;;364.60;;
6727;SDS011;3401;52.504;13.430;2022-07-29T04:46:42;407.40;;;377.20;;
6727;SDS011;3401;52.504;13.430;2022-07-29T04:49:10;359.13;;;333.90;;
6727;SDS011;3401;52.504;13.430;2022-07-29T04:51:39;364.10;;;338.80;;
6727;SDS011;3401;52.504;13.430;2022-07-29T04:54:07;414.13;;;384.03;;
6727;SDS011;3401;52.504;13.430;2022-07-29T04:56:35;349.57;;;325.73;;
6727;SDS011;3401;52.504;13.430;2022-07-29T04:59:04;335.90;;;312.93;;
6727;SDS011;3401;52.504;13.430;2022-07-29T05:01:32;376.23;;;348.73;;
6727;SDS011;3401;52.504;13.430;2022-07-29T05:04:01;271.07;;;253.97;;
6727;SDS011;3401;52.504;13.430;2022-07-29T05:06:29;317.13;;;296.27;;
6727;SDS011;3401;52.504;13.430;2022-07-29T05:08:57;385.83;;;358.07;;
6727;SDS011;3401;52.504;13.430;2022-07-29T05:11:26;400.60;;;371.87;;
6727;SDS011;3401;52.504;13.430;2022-07-29T05:13:56;336.20;;;313.43;;
6727;SDS011;3401;52.504;13.430;2022-07-29T05:16:25;335.77;;;313.13;;
6727;SDS011;3401;52.504;13.430;2022-07-29T05:18:53;286.33;;;267.93;;
6727;SDS011;3401;52.504;13.430;2022-07-29T05:21:21;286.70;;;268.20;;
6727;SDS011;3401;52.504;13.430;2022-07-29T05:23:49;261.03;;;244.27;;
6727;SDS011;3401;52.504;13.430;2022-07-29T05:26:17;248.27;;;232.63;;
6727;SDS011;3401;52.504;13.430;2022-07-29T05:28:45;322.40;;;300.80;;
6727;SDS011;3401;52.504;13.430;2022-07-29T05:31:13;313.83;;;292.87;;
6727;SDS011;3401;52.504;13.430;2022-07-29T05:33:42;350.93;;;326.87;;
6727;SDS011;3401;52.504;13.430;2022-07-29T05:36:10;322.07;;;300.67;;
6727;SDS011;3401;52.504;13.430;2022-07-29T05:38:38;324.63;;;302.63;;
6727;SDS011;3401;52.504;13.430;2022-07-29T05:41:06;299.40;;;279.27;;
6727;SDS011;3401;52.504;13.430;2022-07-29T05:43:34;291.03;;;272.43;;
6727;SDS011;3401;52.504;13.430;2022-07-29T05:46:05;279.77;;;261.57;;
6727;SDS011;3401;52.504;13.430;2022-07-29T05:48:34;345.60;;;321.90;;
6727;SDS011;3401;52.504;13.430;2022-07-29T05:51:06;317.40;;;296.40;;
6727;SDS011;3401;52.504;13.430;2022-07-29T05:53:34;358.37;;;332.37;;
6727;SDS011;3401;52.504;13.430;2022-07-29T05:56:05;278.17;;;260.00;;
6727;SDS011;3401;52.504;13.430;2022-07-29T05:58:33;275.90;;;257.53;;
6727;SDS011;3401;52.504;13.430;2022-07-29T06:01:05;252.50;;;236.70;;
6727;SDS011;3401;52.504;13.430;2022-07-29T06:03:33;252.50;;;236.70;;
6727;SDS011;3401;52.504;13.430;2022-07-29T06:06:04;291.03;;;271.47;;
6727;SDS011;3401;52.504;13.430;2022-07-29T06:08:34;313.07;;;291.80;;
6727;SDS011;3401;52.504;13.430;2022-07-29T06:11:05;341.90;;;317.53;;
6727;SDS011;3401;52.504;13.430;2022-07-29T06:13:34;366.73;;;340.07;;
6727;SDS011;3401;52.504;13.430;2022-07-29T06:16:04;295.77;;;276.17;;
6727;SDS011;3401;52.504;13.430;2022-07-29T06:18:32;286.27;;;267.13;;
6727;SDS011;3401;52.504;13.430;2022-07-29T06:21:01;242.00;;;226.70;;
6727;SDS011;3401;52.504;13.430;2022-07-29T06:23:31;300.47;;;280.00;;
6727;SDS011;3401;52.504;13.430;2022-07-29T06:26:05;335.43;;;311.93;;
6727;SDS011;3401;52.504;13.430;2022-07-29T06:28:33;331.43;;;307.77;;
6727;SDS011;3401;52.504;13.430;2022-07-29T06:31:01;358.67;;;333.10;;
6727;SDS011;3401;52.504;13.430;2022-07-29T06:33:35;895.07;;;827.00;;
6727;SDS011;3401;52.504;13.430;2022-07-29T06:36:06;933.30;;;863.73;;
6727;SDS011;3401;52.504;13.430;2022-07-29T06:38:37;951.60;;;880.43;;
6727;SDS011;3401;52.504;13.430;2022-07-29T06:41:09;948.33;;;877.10;;
6727;SDS011;3401;52.504;13.430;2022-07-29T06:43:39;965.00;;;892.63;;
6727;SDS011;3401;52.504;13.430;2022-07-29T06:46:20;919.40;;;849.60;;
6727;SDS011;3401;52.504;13.430;2022-07-29T06:48:49;970.83;;;897.33;;
6727;SDS011;3401;52.504;13.430;2022-07-29T06:51:18;909.53;;;840.13;;
6727;SDS011;3401;52.504;13.430;2022-07-29T06:53:49;885.73;;;817.67;;
6727;SDS011;3401;52.504;13.430;2022-07-29T06:56:29;922.87;;;852.47;;
6727;SDS011;3401;52.504;13.430;2022-07-29T06:59:04;829.97;;;764.33;;
6727;SDS011;3401;52.504;13.430;2022-07-29T07:01:32;872.20;;;804.93;;
6727;SDS011;3401;52.504;13.430;2022-07-29T07:04:00;905.07;;;835.57;;
6727;SDS011;3401;52.504;13.430;2022-07-29T07:06:27;901.20;;;831.53;;
6727;SDS011;3401;52.504;13.430;2022-07-29T07:08:55;915.30;;;844.57;;
6727;SDS011;3401;52.504;13.430;2022-07-29T07:11:23;935.27;;;863.03;;
6727;SDS011;3401;52.504;13.430;2022-07-29T07:13:52;811.47;;;746.67;;
6727;SDS011;3401;52.504;13.430;2022-07-29T07:16:27;849.93;;;783.37;;
6727;SDS011;3401;52.504;13.430;2022-07-29T07:18:55;804.73;;;740.47;;
6727;SDS011;3401;52.504;13.430;2022-07-29T07:21:23;765.87;;;703.63;;
6727;SDS011;3401;52.504;13.430;2022-07-29T07:23:55;800.47;;;736.17;;
6727;SDS011;3401;52.504;13.430;2022-07-29T07:26:23;765.90;;;704.07;;
6727;SDS011;3401;52.504;13.430;2022-07-29T07:28:52;791.03;;;727.37;;
6727;SDS011;3401;52.504;13.430;2022-07-29T07:31:20;816.70;;;751.47;;
6727;SDS011;3401;52.504;13.430;2022-07-29T07:33:48;789.50;;;725.73;;
6727;SDS011;3401;52.504;13.430;2022-07-29T07:36:18;744.00;;;682.07;;
6727;SDS011;3401;52.504;13.430;2022-07-29T07:38:45;753.70;;;691.80;;
6727;SDS011;3401;52.504;13.430;2022-07-29T07:41:13;734.40;;;672.80;;
6727;SDS011;3401;52.504;13.430;2022-07-29T07:43:41;794.63;;;729.70;;
6727;SDS011;3401;52.504;13.430;2022-07-29T07:46:11;657.87;;;602.07;;
6727;SDS011;3401;52.504;13.430;2022-07-29T07:48:39;613.97;;;560.97;;
6727;SDS011;3401;52.504;13.430;2022-07-29T07:51:07;631.17;;;577.00;;
6727;SDS011;3401;52.504;13.430;2022-07-29T07:53:35;331.77;;;303.97;;
6727;SDS011;3401;52.504;13.430;2022-07-29T07:56:06;580.60;;;529.60;;
6727;SDS011;3401;52.504;13.430;2022-07-29T07:58:37;601.87;;;549.37;;
6727;SDS011;3401;52.504;13.430;2022-07-29T08:01:05;608.83;;;555.60;;
6727;SDS011;3401;52.504;13.430;2022-07-29T08:03:35;605.37;;;552.33;;
6727;SDS011;3401;52.504;13.430;2022-07-29T08:06:04;652.80;;;596.50;;
6727;SDS011;3401;52.504;13.430;2022-07-29T08:08:32;588.57;;;536.97;;
6727;SDS011;3401;52.504;13.430;2022-07-29T08:11:00;614.70;;;560.53;;
6727;SDS011;3401;52.504;13.430;2022-07-29T08:13:35;580.97;;;529.37;;
6727;SDS011;3401;52.504;13.430;2022-07-29T08:16:04;624.10;;;569.43;;
6727;SDS011;3401;52.504;13.430;2022-07-29T08:18:41;615.67;;;561.80;;
6727;SDS011;3401;52.504;13.430;2022-07-29T08:21:10;607.27;;;554.17;;
6727;SDS011;3401;52.504;13.430;2022-07-29T08:23:40;583.90;;;532.40;;
6727;SDS011;3401;52.504;13.430;2022-07-29T08:26:24;629.00;;;574.03;;
6727;SDS011;3401;52.504;13.430;2022-07-29T08:28:52;664.13;;;606.90;;
6727;SDS011;3401;52.504;13.430;2022-07-29T08:31:20;620.03;;;566.00;;
6727;SDS011;3401;52.504;13.430;2022-07-29T08:33:49;605.07;;;551.87;;
6727;SDS011;3401;52.504;13.430;2022-07-29T08:36:17;467.33;;;426.73;;
6727;SDS011;3401;52.504;13.430;2022-07-29T08:38:47;385.30;;;354.40;;
6727;SDS011;3401;52.504;13.430;2022-07-29T08:41:16;386.77;;;355.67;;
6727;SDS011;3401;52.504;13.430;2022-07-29T08:43:45;413.07;;;378.87;;
6727;SDS011;3401;52.504;13.430;2022-07-29T08:46:13;448.53;;;410.60;;
6727;SDS011;3401;52.504;13.430;2022-07-29T08:48:41;369.60;;;338.60;;
6727;SDS011;3401;52.504;13.430;2022-07-29T08:51:13;588.60;;;536.87;;
6727;SDS011;3401;52.504;13.430;2022-07-29T08:53:42;517.20;;;471.60;;
6727;SDS011;3401;52.504;13.430;2022-07-29T08:56:11;561.57;;;512.07;;
6727;SDS011;3401;52.504;13.430;2022-07-29T08:58:40;489.70;;;447.00;;
6727;SDS011;3401;52.504;13.430;2022-07-29T09:01:13;512.20;;;466.40;;
6727;SDS011;3401;52.504;13.430;2022-07-29T09:03:45;475.07;;;432.77;;
6727;SDS011;3401;52.504;13.430;2022-07-29T09:06:15;457.53;;;418.33;;
6727;SDS011;3401;52.504;13.430;2022-07-29T09:08:45;412.77;;;378.67;;
6727;SDS011;3401;52.504;13.430;2022-07-29T09:11:13;281.33;;;259.83;;
6727;SDS011;3401;52.504;13.430;2022-07-29T09:13:41;317.20;;;292.77;;
6727;SDS011;3401;52.504;13.430;2022-07-29T09:16:09;335.77;;;306.63;;
6727;SDS011;3401;52.504;13.430;2022-07-29T09:18:38;336.80;;;310.27;;
6727;SDS011;3401;52.504;13.430;2022-07-29T09:21:08;431.27;;;393.77;;
6727;SDS011;3401;52.504;13.430;2022-07-29T09:24:04;498.83;;;452.50;;
6727;SDS011;3401;52.504;13.430;2022-07-29T09:26:35;476.77;;;433.83;;
6727;SDS011;3401;52.504;13.430;2022-07-29T09:29:12;451.67;;;411.53;;
6727;SDS011;3401;52.504;13.430;2022-07-29T09:31:41;543.00;;;493.40;;
6727;SDS011;3401;52.504;13.430;2022-07-29T09:34:11;530.87;;;481.97;;
6727;SDS011;3401;52.504;13.430;2022-07-29T09:36:40;583.33;;;530.03;;
6727;SDS011;3401;52.504;13.430;2022-07-29T09:39:10;571.13;;;519.03;;
6727;SDS011;3401;52.504;13.430;2022-07-29T09:41:45;627.03;;;570.93;;
6727;SDS011;3401;52.504;13.430;2022-07-29T09:44:14;574.27;;;521.90;;
6727;SDS011;3401;52.504;13.430;2022-07-29T09:46:52;543.50;;;493.33;;
6727;SDS011;3401;52.504;13.430;2022-07-29T09:49:24;527.93;;;479.00;;
6727;SDS011;3401;52.504;13.430;2022-07-29T09:51:59;513.43;;;465.77;;
6727;SDS011;3401;52.504;13.430;2022-07-29T09:54:30;505.67;;;459.13;;
6727;SDS011;3401;52.504;13.430;2022-07-29T09:57:03;449.40;;;409.07;;
6727;SDS011;3401;52.504;13.430;2022-07-29T09:59:32;506.40;;;459.17;;
6727;SDS011;3401;52.504;13.430;2022-07-29T10:02:00;482.57;;;437.63;;
6727;SDS011;3401;52.504;13.430;2022-07-29T10:04:37;426.30;;;388.27;;
6727;SDS011;3401;52.504;13.430;2022-07-29T10:07:07;446.63;;;405.53;;
6727;SDS011;3401;52.504;13.430;2022-07-29T10:09:37;464.33;;;421.00;;
6727;SDS011;3401;52.504;13.430;2022-07-29T10:12:05;460.23;;;417.83;;
6727;SDS011;3401;52.504;13.430;2022-07-29T10:14:35;472.90;;;429.37;;
6727;SDS011;3401;52.504;13.430;2022-07-29T10:17:04;474.53;;;430.50;;
6727;SDS011;3401;52.504;13.430;2022-07-29T10:19:33;457.40;;;415.47;;
6727;SDS011;3401;52.504;13.430;2022-07-29T10:22:02;480.53;;;435.93;;
6727;SDS011;3401;52.504;13.430;2022-07-29T10:24:31;489.70;;;443.60;;
6727;SDS011;3401;52.504;13.430;2022-07-29T10:27:01;485.97;;;440.27;;
6727;SDS011;3401;52.504;13.430;2022-07-29T10:29:30;483.07;;;437.47;;
6727;SDS011;3401;52.504;13.430;2022-07-29T10:32:02;425.20;;;386.47;;
6727;SDS011;3401;52.504;13.430;2022-07-29T10:34:51;1037.97;;;948.30;;
6727;SDS011;3401;52.504;13.430;2022-07-29T10:37:28;762.37;;;693.07;;
6727;SDS011;3401;52.504;13.430;2022-07-29T10:40:03;1095.60;;;998.90;;
6727;SDS011;3401;52.504;13.430;2022-07-29T10:42:54;965.07;;;880.03;;
6727;SDS011;3401;52.504;13.430;2022-07-29T10:45:23;762.27;;;692.80;;
6727;SDS011;3401;52.504;13.430;2022-07-29T10:48:02;865.63;;;787.93;;
6727;SDS011;3401;52.504;13.430;2022-07-29T10:53:23;1171.27;;;999.90;;
6727;SDS011;3401;52.504;13.430;2022-07-29T10:55:59;1243.93;;;999.90;;
6727;SDS011;3401;52.504;13.430;2022-07-29T10:58:33;743.57;;;675.23;;
6727;SDS011;3401;52.504;13.430;2022-07-29T11:01:01;669.63;;;607.43;;
6727;SDS011;3401;52.504;13.430;2022-07-29T11:04:04;688.03;;;624.73;;
6727;SDS011;3401;52.504;13.430;2022-07-29T11:07:08;564.33;;;510.90;;
6727;SDS011;3401;52.504;13.430;2022-07-29T11:09:37;554.80;;;502.23;;
6727;SDS011;3401;52.504;13.430;2022-07-29T11:12:07;678.70;;;616.43;;
6727;SDS011;3401;52.504;13.430;2022-07-29T11:15:15;635.57;;;576.60;;
6727;SDS011;3401;52.504;13.430;2022-07-29T11:18:07;705.33;;;640.70;;
6727;SDS011;3401;52.504;13.430;2022-07-29T11:20:43;646.37;;;586.53;;
6727;SDS011;3401;52.504;13.430;2022-07-29T11:23:19;668.60;;;607.20;;
6727;SDS011;3401;52.504;13.430;2022-07-29T11:28:53;493.77;;;447.03;;
6727;SDS011;3401;52.504;13.430;2022-07-29T11:31:36;392.13;;;357.20;;
6727;SDS011;3401;52.504;13.430;2022-07-29T11:34:21;352.13;;;322.20;;
6727;SDS011;3401;52.504;13.430;2022-07-29T11:40:16;753.23;;;684.90;;
6727;SDS011;3401;52.504;13.430;2022-07-29T11:42:47;715.67;;;650.07;;
6727;SDS011;3401;52.504;13.430;2022-07-29T11:45:21;893.93;;;813.00;;
6727;SDS011;3401;52.504;13.430;2022-07-29T11:48:16;1259.10;;;999.90;;
6727;SDS011;3401;52.504;13.430;2022-07-29T11:50:58;1338.77;;;999.90;;
6727;SDS011;3401;52.504;13.430;2022-07-29T11:53:31;1359.40;;;999.90;;
6727;SDS011;3401;52.504;13.430;2022-07-29T11:56:01;1365.83;;;999.90;;
6727;SDS011;3401;52.504;13.430;2022-07-29T11:58:31;1366.53;;;999.90;;
6727;SDS011;3401;52.504;13.430;2022-07-29T12:01:00;1381.97;;;999.90;;
6727;SDS011;3401;52.504;13.430;2022-07-29T12:03:32;1375.37;;;999.90;;
6727;SDS011;3401;52.504;13.430;2022-07-29T12:06:21;1356.13;;;999.90;;
6727;SDS011;3401;52.504;13.430;2022-07-29T12:08:49;1372.63;;;999.90;;
6727;SDS011;3401;52.504;13.430;2022-07-29T12:11:17;1314.10;;;999.90;;
6727;SDS011;3401;52.504;13.430;2022-07-29T12:13:47;1322.70;;;999.90;;
6727;SDS011;3401;52.504;13.430;2022-07-29T12:16:15;1321.20;;;999.90;;
6727;SDS011;3401;52.504;13.430;2022-07-29T12:18:57;1299.73;;;999.90;;
6727;SDS011;3401;52.504;13.430;2022-07-29T12:21:25;1308.67;;;999.90;;
6727;SDS011;3401;52.504;13.430;2022-07-29T12:23:54;1292.03;;;999.90;;
6727;SDS011;3401;52.504;13.430;2022-07-29T12:26:33;1287.70;;;999.90;;
6727;SDS011;3401;52.504;13.430;2022-07-29T12:29:02;1288.07;;;999.90;;
6727;SDS011;3401;52.504;13.430;2022-07-29T12:31:36;1291.10;;;999.90;;
6727;SDS011;3401;52.504;13.430;2022-07-29T12:34:11;1323.00;;;999.90;;
6727;SDS011;3401;52.504;13.430;2022-07-29T12:36:40;1285.47;;;999.90;;
6727;SDS011;3401;52.504;13.430;2022-07-29T12:39:08;1303.77;;;999.90;;
6727;SDS011;3401;52.504;13.430;2022-07-29T12:41:36;1313.67;;;999.90;;
6727;SDS011;3401;52.504;13.430;2022-07-29T12:44:04;1227.67;;;999.90;;
6727;SDS011;3401;52.504;13.430;2022-07-29T12:46:32;1329.10;;;999.90;;
6727;SDS011;3401;52.504;13.430;2022-07-29T12:49:01;1308.57;;;999.90;;
6727;SDS011;3401;52.504;13.430;2022-07-29T12:51:31;918.67;;;837.17;;
6727;SDS011;3401;52.504;13.430;2022-07-29T12:54:02;1035.03;;;945.93;;
6727;SDS011;3401;52.504;13.430;2022-07-29T12:56:31;1183.80;;;999.90;;
6727;SDS011;3401;52.504;13.430;2022-07-29T12:59:13;820.53;;;746.80;;
6727;SDS011;3401;52.504;13.430;2022-07-29T13:01:43;979.97;;;894.97;;
6727;SDS011;3401;52.504;13.430;2022-07-29T13:04:11;1055.13;;;965.10;;
6727;SDS011;3401;52.504;13.430;2022-07-29T13:06:59;907.63;;;826.33;;
6727;SDS011;3401;52.504;13.430;2022-07-29T13:09:36;636.47;;;576.67;;
6727;SDS011;3401;52.504;13.430;2022-07-29T13:12:05;683.00;;;619.53;;
6727;SDS011;3401;52.504;13.430;2022-07-29T13:14:35;731.60;;;663.57;;
6727;SDS011;3401;52.504;13.430;2022-07-29T13:17:04;686.70;;;622.57;;
6727;SDS011;3401;52.504;13.430;2022-07-29T13:19:34;822.37;;;745.90;;
6727;SDS011;3401;52.504;13.430;2022-07-29T13:22:04;1287.03;;;999.90;;
6727;SDS011;3401;52.504;13.430;2022-07-29T13:24:33;1360.70;;;999.90;;
6727;SDS011;3401;52.504;13.430;2022-07-29T13:27:01;1362.00;;;999.90;;
6727;SDS011;3401;52.504;13.430;2022-07-29T13:29:31;1350.07;;;999.90;;
6727;SDS011;3401;52.504;13.430;2022-07-29T13:31:59;1347.10;;;999.90;;
6727;SDS011;3401;52.504;13.430;2022-07-29T13:34:27;1347.70;;;999.90;;
6727;SDS011;3401;52.504;13.430;2022-07-29T13:36:55;1364.13;;;999.90;;
6727;SDS011;3401;52.504;13.430;2022-07-29T13:39:24;1341.97;;;999.90;;
6727;SDS011;3401;52.504;13.430;2022-07-29T13:41:52;1375.07;;;999.90;;
6727;SDS011;3401;52.504;13.430;2022-07-29T13:44:21;1374.30;;;999.90;;
6727;SDS011;3401;52.504;13.430;2022-07-29T13:46:49;1370.93;;;999.90;;
6727;SDS011;3401;52.504;13.430;2022-07-29T13:49:17;1373.47;;;999.90;;
6727;SDS011;3401;52.504;13.430;2022-07-29T13:51:45;1353.77;;;999.90;;
6727;SDS011;3401;52.504;13.430;2022-07-29T13:54:13;1373.17;;;999.90;;
6727;SDS011;3401;52.504;13.430;2022-07-29T13:56:42;1361.40;;;999.90;;
6727;SDS011;3401;52.504;13.430;2022-07-29T13:59:11;1375.30;;;999.90;;
6727;SDS011;3401;52.504;13.430;2022-07-29T14:01:41;1360.20;;;999.90;;
6727;SDS011;3401;52.504;13.430;2022-07-29T14:04:10;1350.90;;;999.90;;
6727;SDS011;3401;52.504;13.430;2022-07-29T14:06:39;1345.10;;;999.90;;
6727;SDS011;3401;52.504;13.430;2022-07-29T14:09:07;1353.80;;;999.90;;
6727;SDS011;3401;52.504;13.430;2022-07-29T14:11:35;1327.60;;;999.90;;
6727;SDS011;3401;52.504;13.430;2022-07-29T14:14:06;1313.73;;;999.90;;
6727;SDS011;3401;52.504;13.430;2022-07-29T14:16:34;1333.23;;;999.90;;
6727;SDS011;3401;52.504;13.430;2022-07-29T14:19:08;1344.77;;;999.90;;
6727;SDS011;3401;52.504;13.430;2022-07-29T14:21:37;1331.67;;;999.90;;
6727;SDS011;3401;52.504;13.430;2022-07-29T14:24:05;1332.77;;;999.90;;
6727;SDS011;3401;52.504;13.430;2022-07-29T14:26:43;1333.07;;;999.90;;
6727;SDS011;3401;52.504;13.430;2022-07-29T14:29:13;1340.77;;;999.90;;
6727;SDS011;3401;52.504;13.430;2022-07-29T14:31:41;1367.90;;;999.90;;
6727;SDS011;3401;52.504;13.430;2022-07-29T14:34:10;1358.37;;;999.90;;
6727;SDS011;3401;52.504;13.430;2022-07-29T14:36:38;1357.13;;;999.90;;